Kezdőlap
METAR-TAF:

METAR-TAF

Repülőterek :

Madrid-Barajasi repülőtér

Madrid, Spanyolország

földrajzi szélesség: 40-27N, földrajzi hosszúság: 003-33W, magasság: 609 m

Jelenlegi meteorológiai megfigyelések

A jelentés 13 perccel ezelõtt készült, 04:30 UTC
Északi szél 4 kt
Hőmérséklet 0°C
Páratartalom 100%
Légköri nyomás 1031 hPa
Látótávolság 10 km, vagy több
felhőtlen 1500 m magasságban, és nincs gomolyfelhõ

METAR: LEMD 100430Z 35004KT CAVOK 00/00 Q1031 NOSIG

Idő: 05:43 (04:43 UTC)

Előrejelzés

A jelentés 5 órával és 43 perccel ezelõtt készült, 23:00 UTC
Az előrejelzés 10-én 00 óra UTC és 11-én 06 óra UTC között érvényes
Különbözõ irányokból fújó szél 3 kt
Látótávolság 10 km, vagy több
felhőtlen 1500 m magasságban, és nincs gomolyfelhõ
Valószínűség 30% :
10-én 00 óra UTC és 10-én 08 óra UTC között ideiglenes
Látótávolság: 3000 m
Párásság

TAF: LEMD 092300Z 1000/1106 VRB03KT CAVOK TX16/1015Z TN01/1106Z PROB30 TEMPO 1000/1008 3000 BR

Meteorológiai megfigyelések és előrejelzések több, mint 4000 repülőtéren (METAR és TAF jelentéseket).

A térképen piros és sárga pontok jelzik az elérhető meteorológiai állomásokat.

Mozgassa az egeret a pont fölött, hogy megjelenjen az állomás neve.

Azután kattintson az időjárási megfigyelések és előrejelzések megtekintéséhez.

A térkép megváltoztatása: kattintson a fekete keresztel jelölt zöld gombra ráközelítéshez, a vonallal jelölt zöld gombra távolításhoz, vagy a zöld nyilakra a szomszédos térképek eléréséhez.


METAR-TAF: